Startpagina
METAR-TAF:

METAR-TAF

Vliegvelden :

Luchthaven van Auckland

Auckland, Nieuw-Zeeland

breedte: 37-01S, lengte: 174-48E, hoogte: 7 m

Actueel weer

Dit bericht is 20 minuten geleden gemaakt, om 13:30 UTC
Wind 4 kt uit het noorden
Temperatuur 9°C
Vochtigheid 93%
Druk 1018 hPa
Zicht 10 km of meer

METAR: NZAA 231330Z AUTO 36004KT 9999 FEW060/// SCT070/// 09/08 Q1018 NOSIG

Tijdstip: 01:50 (13:50 UTC)

Verwachting

Dit bericht is 2 uur en het 48 minuten geleden gemaakt, om 11:02 UTC
Verwachting geldig van 23 om 12 UTC tot 24 om 12 UTC
Wind 8 kt uit het westen
Zicht 10 km of meer
Gebroken wolken op 5000 ft
lichte regenbuien
Wijzigt naar
van 24 om 03 UTC tot 24 om 05 UTC
Wind 15 kt uit het noordwesten
Tijdelijke
van 24 om 03 UTC tot 24 om 12 UTC
Zicht: 6000 m
regenbuien

TAF: NZAA 231102Z 2312/2412 26008KT 9999 -SHRA BKN050 BECMG 2403/2405 32015KT TEMPO 2403/2412 6000 SHRA

Waarnemingen en weersverwachtingen van meer dan 4000 vliegvelden (METAR en TAF).

De beschikbare stations zijn de gele en rode punten op de kaart.

Ga met uw muis naar het station om de naam te zien.

Klik dan om waarnemingen en weersverwachtingen te zien.

kaart wijzigen: klik op de groene knoppen met een zwart kruis om in te zoomen, op de groene knop met een streepje om uit te zoomen of op de groene pijlen voor aangrenzende kaarten.


METAR-TAF: